Time;durP1;ratioP1;P1;durP2;ratioP2;P2;SDS_P1;SDS_P2;PMS_P1;PMS_P2;Temp;Humidity;BMP_temperature;BMP_pressure;BME280_temperature;BME280_humidity;BME280_pressure;Samples;Min_cycle;Max_cycle;Signal;HPM_P1;HPM_P2
2022/01/10 00:01:10;;;;;;;3.53;2.00;;;6.30;99.90;;;;;;5056443;28;20259;-79
2022/01/10 00:03:39;;;;;;;2.70;2.00;;;6.20;99.90;;;;;;5066699;28;20228;-79
2022/01/10 00:06:07;;;;;;;2.78;1.95;;;6.30;99.90;;;;;;5057195;28;20729;-79
2022/01/10 00:08:37;;;;;;;3.97;1.88;;;6.30;1.00;;;;;;5070781;28;20749;-79
2022/01/10 00:11:06;;;;;;;3.85;2.15;;;6.30;1.00;;;;;;5060291;28;20288;-78
2022/01/10 00:13:35;;;;;;;4.20;2.33;;;6.30;1.00;;;;;;5065254;28;20219;-78
2022/01/10 00:16:04;;;;;;;3.50;3.30;;;6.30;1.00;;;;;;5065051;28;20316;-80
2022/01/10 00:18:32;;;;;;;2.67;2.47;;;6.30;99.90;;;;;;5065937;28;20211;-79
2022/01/10 00:21:00;;;;;;;3.27;2.40;;;6.30;99.90;;;;;;5056831;28;21029;-79
2022/01/10 00:23:29;;;;;;;3.42;2.13;;;6.30;1.00;;;;;;5074902;28;20488;-79
2022/01/10 00:25:57;;;;;;;2.43;1.90;;;6.30;1.00;;;;;;5062887;28;20196;-80
2022/01/10 00:28:25;;;;;;;6.38;2.08;;;6.30;1.00;;;;;;5061867;28;20467;-79
2022/01/10 00:30:55;;;;;;;5.00;2.35;;;6.30;1.00;;;;;;5061971;28;20226;-78
2022/01/10 00:33:23;;;;;;;2.65;2.22;;;6.30;1.00;;;;;;5065993;28;20218;-78
2022/01/10 00:35:51;;;;;;;2.38;1.70;;;6.30;1.00;;;;;;5062293;28;20224;-79
2022/01/10 00:38:19;;;;;;;3.15;1.85;;;6.30;1.00;;;;;;5060420;28;20209;-79
2022/01/10 00:40:49;;;;;;;5.20;2.00;;;6.20;1.00;;;;;;5064235;28;20282;-78
2022/01/10 00:43:28;;;;;;;4.97;2.15;;;6.30;1.00;;;;;;5071041;28;20257;-79
2022/01/10 00:45:58;;;;;;;3.55;2.28;;;6.30;1.00;;;;;;5062901;28;20193;-80
2022/01/10 00:48:27;;;;;;;4.90;2.08;;;6.20;1.00;;;;;;5067103;28;20195;-79
2022/01/10 00:50:55;;;;;;;6.22;1.90;;;6.30;1.00;;;;;;5060825;28;20208;-79
2022/01/10 00:53:25;;;;;;;2.88;1.58;;;6.30;1.00;;;;;;5077494;28;20223;-78
2022/01/10 00:55:53;;;;;;;2.00;1.70;;;6.30;1.00;;;;;;5058136;28;20212;-78
2022/01/10 00:58:21;;;;;;;4.88;2.28;;;6.30;1.00;;;;;;5078827;28;20194;-80
2022/01/10 01:00:51;;;;;;;4.65;2.28;;;6.30;1.00;;;;;;5066916;28;20205;-77
2022/01/10 01:03:20;;;;;;;1.73;1.42;;;6.30;1.00;;;;;;5080637;28;20217;-79
2022/01/10 01:05:49;;;;;;;2.83;1.80;;;6.30;1.00;;;;;;5066774;28;20197;-79
2022/01/10 01:08:17;;;;;;;4.65;1.85;;;6.30;1.00;;;;;;5067802;28;20205;-79
2022/01/10 01:11:20;;;;;;;3.15;1.75;;;6.30;1.00;;;;;;5060249;28;20193;-78
2022/01/10 01:13:54;;;;;;;1.80;1.70;;;6.30;1.00;;;;;;5055632;28;20217;-79
2022/01/10 01:16:44;;;;;;;3.80;1.98;;;6.30;1.00;;;;;;5056635;28;20605;-79
2022/01/10 01:20:02;;;;;;;1.88;1.77;;;6.30;1.00;;;;;;5073647;28;20204;-79
2022/01/10 01:25:05;;;;;;;2.95;1.70;;;6.40;1.00;;;;;;5079864;28;20212;-79
2022/01/10 01:27:33;;;;;;;3.50;2.25;;;6.30;1.00;;;;;;5069702;28;20213;-80
2022/01/10 01:30:02;;;;;;;1.88;1.30;;;6.30;1.00;;;;;;5063927;28;20262;-80
2022/01/10 01:32:30;;;;;;;5.45;2.95;;;6.30;1.00;;;;;;5064284;28;20227;-80
2022/01/10 01:35:05;;;;;;;6.30;2.53;;;6.60;1.00;;;;;;5077212;28;20215;-81
2022/01/10 01:37:35;;;;;;;6.50;2.67;;;6.30;1.00;;;;;;5058468;28;20672;-80
2022/01/10 01:40:04;;;;;;;3.42;2.47;;;6.30;1.00;;;;;;5068610;28;20200;-80
2022/01/10 01:42:36;;;;;;;4.53;1.77;;;6.30;1.00;;;;;;5055848;28;20213;-81
2022/01/10 01:45:06;;;;;;;3.63;1.60;;;6.30;1.00;;;;;;5068225;28;20223;-80
2022/01/10 01:47:34;;;;;;;3.88;2.30;;;6.20;1.00;;;;;;5071121;28;20205;-80
2022/01/10 01:50:05;;;;;;;2.38;1.90;;;6.30;1.00;;;;;;5068801;28;20208;-80
2022/01/10 01:52:34;;;;;;;2.92;1.92;;;6.30;1.00;;;;;;5057126;28;20197;-80
2022/01/10 01:55:03;;;;;;;3.55;2.20;;;6.30;1.00;;;;;;5062046;28;20232;-79
2022/01/10 01:57:32;;;;;;;2.50;2.13;;;6.20;1.00;;;;;;5062310;28;20211;-80
2022/01/10 02:00:00;;;;;;;4.80;2.25;;;6.20;1.00;;;;;;5063998;28;20197;-80
2022/01/10 02:02:29;;;;;;;4.22;2.60;;;6.30;1.00;;;;;;5075258;28;20203;-80
2022/01/10 02:04:57;;;;;;;2.33;2.13;;;6.30;1.00;;;;;;5068160;28;20224;-79
2022/01/10 02:07:27;;;;;;;5.30;2.00;;;6.30;1.00;;;;;;5059302;28;20454;-80
2022/01/10 02:09:55;;;;;;;3.40;2.40;;;6.30;1.00;;;;;;5053875;28;20448;-79
2022/01/10 02:12:24;;;;;;;3.23;1.70;;;6.30;1.00;;;;;;5073305;28;20849;-80
2022/01/10 02:14:52;;;;;;;3.47;2.10;;;6.20;1.00;;;;;;5071606;28;20479;-80
2022/01/10 02:17:22;;;;;;;3.03;2.13;;;6.30;1.00;;;;;;5068037;28;20215;-79
2022/01/10 02:19:56;;;;;;;3.13;1.80;;;6.30;1.00;;;;;;5067238;28;20272;-79
2022/01/10 02:22:25;;;;;;;2.45;2.20;;;6.30;1.00;;;;;;5061848;28;20578;-79
2022/01/10 02:24:53;;;;;;;2.60;1.90;;;6.30;1.00;;;;;;5060698;28;20260;-80
2022/01/10 02:27:22;;;;;;;2.08;1.40;;;6.20;1.00;;;;;;5073701;28;20469;-79
2022/01/10 02:29:51;;;;;;;2.58;2.00;;;6.30;1.00;;;;;;5061217;28;20204;-80
2022/01/10 02:32:20;;;;;;;2.53;1.60;;;6.20;1.00;;;;;;5073147;28;20687;-80
2022/01/10 02:34:49;;;;;;;2.10;1.90;;;6.30;1.00;;;;;;5077747;28;20485;-80
2022/01/10 02:37:32;;;;;;;2.50;1.87;;;6.20;1.00;;;;;;5063322;28;20221;-80
2022/01/10 02:40:03;;;;;;;2.90;1.88;;;6.30;1.00;;;;;;5071838;28;20468;-80
2022/01/10 02:42:32;;;;;;;4.93;2.20;;;6.20;1.00;;;;;;5068527;28;20208;-80
2022/01/10 02:45:00;;;;;;;2.70;1.60;;;6.30;1.00;;;;;;5071762;28;20277;-80
2022/01/10 02:47:31;;;;;;;2.73;1.50;;;6.30;1.00;;;;;;5067044;28;20970;-81
2022/01/10 02:49:59;;;;;;;1.83;1.73;;;6.30;1.00;;;;;;5071076;28;20464;-81
2022/01/10 02:52:27;;;;;;;2.23;2.03;;;6.30;1.00;;;;;;5060938;28;20210;-80
2022/01/10 02:55:00;;;;;;;4.40;1.90;;;6.20;1.00;;;;;;5056644;28;20471;-80
2022/01/10 02:57:28;;;;;;;3.67;1.65;;;6.20;1.00;;;;;;5058988;28;20538;-81
2022/01/10 02:59:56;;;;;;;3.00;1.70;;;6.20;1.00;;;;;;5061367;28;20201;-80
2022/01/10 03:02:29;;;;;;;2.17;1.67;;;6.20;1.00;;;;;;5088597;28;20587;-80
2022/01/10 03:04:58;;;;;;;9.57;1.60;;;6.20;1.00;;;;;;5062292;28;20209;-81
2022/01/10 03:07:27;;;;;;;1.90;1.80;;;6.20;1.00;;;;;;5078639;28;20196;-77
2022/01/10 03:09:57;;;;;;;1.70;1.60;;;6.20;1.00;;;;;;5062710;28;20454;-80
2022/01/10 03:12:26;;;;;;;2.70;2.05;;;6.20;1.00;;;;;;5061041;28;20446;-81
2022/01/10 03:14:54;;;;;;;2.10;1.90;;;6.20;1.00;;;;;;5073252;28;20280;-80
2022/01/10 03:17:22;;;;;;;3.03;1.30;;;6.20;1.00;;;;;;5066556;28;20755;-79
2022/01/10 03:19:50;;;;;;;1.93;1.73;;;6.20;1.00;;;;;;5073139;28;20460;-80
2022/01/10 03:22:19;;;;;;;4.20;1.97;;;6.20;1.00;;;;;;5059464;28;20459;-80
2022/01/10 03:24:47;;;;;;;2.25;1.65;;;6.20;1.00;;;;;;5077359;28;20490;-79
2022/01/10 03:27:17;;;;;;;5.70;1.63;;;6.20;1.00;;;;;;5066547;28;20200;-80
2022/01/10 03:29:45;;;;;;;4.10;1.65;;;6.20;1.00;;;;;;5063909;28;20460;-80
2022/01/10 03:32:13;;;;;;;3.33;1.85;;;6.20;1.00;;;;;;5071986;28;20612;-79
2022/01/10 03:34:42;;;;;;;2.45;1.60;;;6.20;1.00;;;;;;5066765;28;20225;-80
2022/01/10 03:37:11;;;;;;;2.85;1.50;;;6.20;1.00;;;;;;5060424;28;20229;-80
2022/01/10 03:39:39;;;;;;;2.60;1.57;;;6.20;1.00;;;;;;5051588;28;20691;-80
2022/01/10 03:42:07;;;;;;;2.53;2.10;;;6.20;1.00;;;;;;5069238;28;20463;-79
2022/01/10 03:44:37;;;;;;;4.60;1.80;;;6.20;1.00;;;;;;5067737;28;20469;-79
2022/01/10 03:47:06;;;;;;;1.70;1.60;;;6.20;1.00;;;;;;5069311;28;20216;-79
2022/01/10 03:49:34;;;;;;;4.18;1.85;;;6.20;1.00;;;;;;5070225;28;20207;-79
2022/01/10 03:52:02;;;;;;;2.80;1.60;;;6.20;1.00;;;;;;5070840;28;20208;-79
2022/01/10 03:54:30;;;;;;;3.80;1.77;;;6.20;1.00;;;;;;5075564;28;20473;-78
2022/01/10 03:56:59;;;;;;;3.08;2.10;;;6.20;1.00;;;;;;5069665;28;20211;-80
2022/01/10 03:59:27;;;;;;;2.75;1.90;;;6.20;1.00;;;;;;5061829;28;20275;-78
2022/01/10 04:01:57;;;;;;;2.95;1.80;;;6.20;1.00;;;;;;5065366;28;20570;-79
2022/01/10 04:04:25;;;;;;;2.33;2.20;;;6.20;1.00;;;;;;5058431;28;20217;-79
2022/01/10 04:06:54;;;;;;;2.50;1.87;;;6.20;1.00;;;;;;5070891;28;20519;-79
2022/01/10 04:09:22;;;;;;;3.23;2.03;;;6.30;1.00;;;;;;5056127;28;20460;-80
2022/01/10 04:11:50;;;;;;;2.38;1.55;;;6.10;1.00;;;;;;5067644;28;20459;-79
2022/01/10 04:14:20;;;;;;;1.98;1.40;;;6.20;1.00;;;;;;5076611;28;20233;-79
2022/01/10 04:16:49;;;;;;;3.08;1.88;;;6.10;1.00;;;;;;5053504;28;20220;-79
2022/01/10 04:19:18;;;;;;;2.70;1.73;;;6.10;1.00;;;;;;5067571;28;20243;-79
2022/01/10 04:21:46;;;;;;;3.45;2.13;;;6.10;1.00;;;;;;5062974;28;20672;-80
2022/01/10 04:24:15;;;;;;;4.43;1.90;;;6.10;1.00;;;;;;5055049;28;20217;-79
2022/01/10 04:26:44;;;;;;;2.70;2.42;;;6.10;1.00;;;;;;5075066;28;20229;-80
2022/01/10 04:29:12;;;;;;;2.17;1.92;;;6.10;1.00;;;;;;5067649;28;20287;-80
2022/01/10 04:31:40;;;;;;;4.68;2.00;;;6.10;1.00;;;;;;5064789;28;20208;-79
2022/01/10 04:34:08;;;;;;;3.78;2.47;;;6.10;1.00;;;;;;5068139;28;20216;-79
2022/01/10 04:36:38;;;;;;;4.00;2.10;;;6.10;1.00;;;;;;5075406;28;20215;-78
2022/01/10 04:39:06;;;;;;;5.20;2.60;;;6.10;1.00;;;;;;5047793;28;20193;-78
2022/01/10 04:41:37;;;;;;;4.75;2.30;;;6.10;1.00;;;;;;5055869;28;20193;-81
2022/01/10 04:44:06;;;;;;;5.13;3.03;;;6.10;1.00;;;;;;5054007;28;20287;-79
2022/01/10 04:46:35;;;;;;;7.85;2.70;;;6.10;1.00;;;;;;5074456;28;20475;-79
2022/01/10 04:49:05;;;;;;;4.97;2.90;;;6.10;1.00;;;;;;5062165;28;20204;-79
2022/01/10 04:51:33;;;;;;;2.92;2.63;;;6.10;1.00;;;;;;5065637;28;20449;-78
2022/01/10 04:54:03;;;;;;;4.65;3.08;;;6.10;1.00;;;;;;5055205;28;20221;-79
2022/01/10 04:56:32;;;;;;;3.20;2.57;;;6.20;1.00;;;;;;5069707;28;20653;-79
2022/01/10 04:59:00;;;;;;;8.85;3.15;;;6.20;1.00;;;;;;5063411;28;20454;-79
2022/01/10 05:01:29;;;;;;;8.38;2.90;;;6.20;1.00;;;;;;5062445;28;20204;-79
2022/01/10 05:03:58;;;;;;;2.73;2.20;;;6.10;1.00;;;;;;5057764;28;20224;-80
2022/01/10 05:06:26;;;;;;;7.22;3.13;;;6.10;1.00;;;;;;5054789;28;20466;-78
2022/01/10 05:08:54;;;;;;;5.97;3.53;;;6.10;1.00;;;;;;5065450;28;20200;-78
2022/01/10 05:11:24;;;;;;;3.35;2.30;;;6.10;1.00;;;;;;5065751;28;20660;-78
2022/01/10 05:13:52;;;;;;;2.15;1.95;;;6.10;1.00;;;;;;5065754;28;20217;-78
2022/01/10 05:16:20;;;;;;;4.05;2.00;;;6.20;1.00;;;;;;5075781;28;20195;-79
2022/01/10 05:18:48;;;;;;;3.70;2.40;;;6.10;1.00;;;;;;5072126;28;20225;-80
2022/01/10 05:21:17;;;;;;;4.25;3.20;;;6.10;1.00;;;;;;5064744;28;20682;-79
2022/01/10 05:23:45;;;;;;;5.43;3.83;;;6.10;1.00;;;;;;5064130;28;20582;-79
2022/01/10 05:26:14;;;;;;;4.60;3.38;;;6.10;1.00;;;;;;5071171;28;20201;-79
2022/01/10 05:28:43;;;;;;;3.70;2.20;;;6.10;1.00;;;;;;5066642;28;20238;-80
2022/01/10 05:31:12;;;;;;;3.63;2.58;;;6.10;1.00;;;;;;5064939;28;20212;-81
2022/01/10 05:33:40;;;;;;;7.35;2.90;;;6.10;1.00;;;;;;5068942;28;20619;-80
2022/01/10 05:36:08;;;;;;;3.47;2.38;;;6.10;1.00;;;;;;5060312;28;20707;-80
2022/01/10 05:38:37;;;;;;;6.55;3.08;;;6.10;1.00;;;;;;5060214;28;20306;-80
2022/01/10 05:41:05;;;;;;;2.60;2.38;;;6.10;1.00;;;;;;5056788;28;20363;-80
2022/01/10 05:43:33;;;;;;;3.53;2.00;;;6.10;1.00;;;;;;5057220;28;20220;-80
2022/01/10 05:46:07;;;;;;;4.05;2.67;;;6.10;1.00;;;;;;5058957;28;20189;-80
2022/01/10 05:48:36;;;;;;;3.97;2.50;;;6.10;1.00;;;;;;5068942;28;20188;-81
2022/01/10 05:51:04;;;;;;;4.47;2.40;;;6.10;1.00;;;;;;5064309;28;20197;-81
2022/01/10 05:53:33;;;;;;;5.25;2.85;;;6.20;1.00;;;;;;5059794;28;20227;-81
2022/01/10 05:56:01;;;;;;;3.90;2.80;;;6.20;1.00;;;;;;5059920;28;20199;-80
2022/01/10 05:58:30;;;;;;;5.03;2.60;;;6.20;1.00;;;;;;5071931;28;20569;-80
2022/01/10 06:00:59;;;;;;;3.75;2.28;;;6.10;1.00;;;;;;5062098;28;20222;-81
2022/01/10 06:03:28;;;;;;;3.08;2.47;;;6.10;1.00;;;;;;5066466;28;20228;-80
2022/01/10 06:05:57;;;;;;;3.00;2.70;;;6.20;1.00;;;;;;5058446;28;20193;-81
2022/01/10 06:08:25;;;;;;;3.60;2.63;;;6.20;1.00;;;;;;5054437;28;20665;-79
2022/01/10 06:10:53;;;;;;;3.97;2.65;;;6.20;1.00;;;;;;5050122;28;20263;-79
2022/01/10 06:13:21;;;;;;;3.22;2.42;;;6.20;1.00;;;;;;5069812;28;20216;-79
2022/01/10 06:15:51;;;;;;;4.20;2.20;;;6.20;1.00;;;;;;5066249;28;20203;-80
2022/01/10 06:18:20;;;;;;;2.63;2.10;;;6.20;1.00;;;;;;5069814;28;20220;-79
2022/01/10 06:20:49;;;;;;;4.97;2.60;;;6.20;1.00;;;;;;5054678;28;20521;-79
2022/01/10 06:23:17;;;;;;;3.53;2.00;;;6.20;1.00;;;;;;5079838;28;20221;-81
2022/01/10 06:25:46;;;;;;;4.40;2.47;;;6.20;1.00;;;;;;5064906;28;20200;-80
2022/01/10 06:28:14;;;;;;;3.22;2.40;;;6.10;1.00;;;;;;5065177;28;20477;-80
2022/01/10 06:30:43;;;;;;;3.73;2.87;;;6.10;1.00;;;;;;5063412;28;20296;-79
2022/01/10 06:33:12;;;;;;;5.38;2.45;;;6.10;1.00;;;;;;5063078;28;20503;-80
2022/01/10 06:35:40;;;;;;;3.10;2.40;;;6.20;1.00;;;;;;5059259;28;20208;-80
2022/01/10 06:38:10;;;;;;;4.65;2.88;;;6.20;1.00;;;;;;5073797;28;20220;-81
2022/01/10 06:40:38;;;;;;;5.35;3.88;;;6.20;1.00;;;;;;5070386;28;20589;-81
2022/01/10 06:43:06;;;;;;;9.25;4.25;;;6.20;1.00;;;;;;5070218;28;20599;-79
2022/01/10 06:45:37;;;;;;;9.52;5.28;;;6.20;1.00;;;;;;5060579;28;20198;-80
2022/01/10 06:48:06;;;;;;;7.70;4.80;;;6.20;1.00;;;;;;5069040;28;20193;-80
2022/01/10 06:50:34;;;;;;;5.53;3.42;;;6.20;1.00;;;;;;5067911;28;20207;-79
2022/01/10 06:53:03;;;;;;;10.25;4.18;;;6.10;1.00;;;;;;5073810;28;20204;-80
2022/01/10 06:55:33;;;;;;;6.15;3.90;;;6.20;1.00;;;;;;5063526;28;20604;-80
2022/01/10 06:58:01;;;;;;;6.30;3.67;;;6.20;1.00;;;;;;5073830;28;20216;-80
2022/01/10 07:00:29;;;;;;;4.90;3.85;;;6.20;1.00;;;;;;5057705;28;20208;-80
2022/01/10 07:02:58;;;;;;;5.65;3.20;;;6.20;1.00;;;;;;5076508;28;20199;-80
2022/01/10 07:05:28;;;;;;;4.35;2.63;;;6.20;1.00;;;;;;5062594;28;20200;-79
2022/01/10 07:07:57;;;;;;;5.90;3.78;;;6.20;1.00;;;;;;5073466;28;20211;-80
2022/01/10 07:10:25;;;;;;;4.63;3.10;;;6.20;1.00;;;;;;5054301;28;20202;-80
2022/01/10 07:12:54;;;;;;;9.60;2.90;;;6.20;1.00;;;;;;5054132;28;20212;-79
2022/01/10 07:15:25;;;;;;;4.18;2.63;;;6.20;1.00;;;;;;5069927;28;20247;-79
2022/01/10 07:17:53;;;;;;;2.05;1.85;;;6.20;1.00;;;;;;5067818;28;20208;-80
2022/01/10 07:20:22;;;;;;;2.90;2.70;;;6.20;1.00;;;;;;5052029;28;20736;-80
2022/01/10 07:22:50;;;;;;;3.55;2.65;;;6.20;1.00;;;;;;5060976;28;20211;-80
2022/01/10 07:25:18;;;;;;;4.68;2.53;;;6.20;1.00;;;;;;5074027;28;20195;-80
2022/01/10 07:27:47;;;;;;;6.65;2.45;;;6.30;1.00;;;;;;5054673;28;20212;-80
2022/01/10 07:30:17;;;;;;;3.78;2.75;;;6.20;1.00;;;;;;5058449;28;20204;-79
2022/01/10 07:32:45;;;;;;;6.30;2.70;;;6.20;1.00;;;;;;5063106;28;20291;-81
2022/01/10 07:35:14;;;;;;;3.50;2.97;;;6.20;1.00;;;;;;5070668;28;20532;-80
2022/01/10 07:37:42;;;;;;;9.73;3.07;;;6.30;1.00;;;;;;5071525;28;20207;-79
2022/01/10 07:40:12;;;;;;;6.47;2.78;;;6.30;1.00;;;;;;5060703;28;20958;-80
2022/01/10 07:42:41;;;;;;;3.85;2.50;;;6.30;1.00;;;;;;5074707;28;20247;-80
2022/01/10 07:45:10;;;;;;;5.70;2.40;;;6.20;1.00;;;;;;5060500;28;20221;-81
2022/01/10 07:47:40;;;;;;;8.07;2.70;;;6.20;1.00;;;;;;5073579;28;20206;-80
2022/01/10 07:50:09;;;;;;;9.15;3.88;;;6.20;1.00;;;;;;5062403;28;20193;-80
2022/01/10 07:52:38;;;;;;;6.10;2.80;;;6.30;1.00;;;;;;5067133;28;20221;-80
2022/01/10 07:55:07;;;;;;;2.88;2.67;;;6.20;1.00;;;;;;5082970;28;20494;-80
2022/01/10 07:57:35;;;;;;;6.45;2.45;;;6.30;1.00;;;;;;5057347;28;20290;-80
2022/01/10 08:00:05;;;;;;;3.83;2.25;;;6.40;1.00;;;;;;5068364;28;20229;-80
2022/01/10 08:02:35;;;;;;;4.78;2.38;;;6.40;1.00;;;;;;5053653;28;20262;-81
2022/01/10 08:05:07;;;;;;;4.10;2.78;;;6.40;1.00;;;;;;5054590;28;20701;-81
2022/01/10 08:07:36;;;;;;;4.00;3.10;;;6.40;1.00;;;;;;5066080;28;20223;-80
2022/01/10 08:10:04;;;;;;;9.90;3.58;;;6.40;1.00;;;;;;5064644;28;20479;-81
2022/01/10 08:12:32;;;;;;;6.03;4.10;;;6.40;1.00;;;;;;5076115;28;20226;-81
2022/01/10 08:15:00;;;;;;;5.30;4.50;;;6.40;1.00;;;;;;5058725;28;20244;-82
2022/01/10 08:17:28;;;;;;;6.53;4.60;;;6.40;1.00;;;;;;5056644;28;20485;-81
2022/01/10 08:19:57;;;;;;;4.80;3.92;;;6.70;1.00;;;;;;5056416;28;20595;-80
2022/01/10 08:22:26;;;;;;;6.93;4.23;;;6.40;1.00;;;;;;5062106;28;20258;-80
2022/01/10 08:24:55;;;;;;;4.75;3.97;;;6.40;1.00;;;;;;5065270;28;20573;-80
2022/01/10 08:27:23;;;;;;;8.02;3.28;;;6.40;1.00;;;;;;5070890;28;20215;-81
2022/01/10 08:29:52;;;;;;;5.63;3.72;;;6.40;1.00;;;;;;5062491;28;20256;-81
2022/01/10 08:32:20;;;;;;;8.50;3.70;;;6.40;1.00;;;;;;5065221;28;20205;-79
2022/01/10 08:34:48;;;;;;;5.07;3.83;;;6.50;1.00;;;;;;5065633;28;20275;-81
2022/01/10 08:37:16;;;;;;;4.00;2.80;;;6.50;1.00;;;;;;5063960;28;20691;-80
2022/01/10 08:39:49;;;;;;;10.70;3.80;;;6.50;1.00;;;;;;5055846;28;20917;-80
2022/01/10 08:42:17;;;;;;;12.88;3.90;;;6.50;1.00;;;;;;5060386;28;20197;-80
2022/01/10 08:44:46;;;;;;;10.93;5.70;;;6.50;1.00;;;;;;5055135;28;20585;-80
2022/01/10 08:47:20;;;;;;;11.02;6.10;;;6.60;1.00;;;;;;5057105;28;20815;-80
2022/01/10 08:49:49;;;;;;;7.93;4.10;;;6.50;1.00;;;;;;5067781;28;20197;-80
2022/01/10 08:52:17;;;;;;;11.10;4.88;;;6.60;1.00;;;;;;5070317;28;20209;-80
2022/01/10 08:54:49;;;;;;;7.27;3.70;;;6.70;1.00;;;;;;5066441;28;20221;-81
2022/01/10 08:57:17;;;;;;;11.40;4.80;;;6.70;1.00;;;;;;5080187;28;21161;-79
2022/01/10 08:59:46;;;;;;;10.17;4.53;;;6.70;1.00;;;;;;5078823;28;20530;-81
2022/01/10 09:02:15;;;;;;;9.45;5.20;;;6.70;1.00;;;;;;5054386;28;20451;-80
2022/01/10 09:04:43;;;;;;;9.07;4.63;;;6.60;1.00;;;;;;5066138;28;20229;-80
2022/01/10 09:07:12;;;;;;;10.95;5.32;;;6.70;1.00;;;;;;5073078;28;20258;-80
2022/01/10 09:09:40;;;;;;;8.03;3.90;;;6.60;1.00;;;;;;5068938;28;20230;-81
2022/01/10 09:12:11;;;;;;;9.13;5.18;;;6.70;1.00;;;;;;5069889;28;20470;-81
2022/01/10 09:14:39;;;;;;;9.23;5.17;;;6.70;1.00;;;;;;5070761;28;20216;-80
2022/01/10 09:17:07;;;;;;;6.90;4.30;;;6.70;1.00;;;;;;5059738;28;20455;-81
2022/01/10 09:19:36;;;;;;;10.53;5.77;;;6.70;1.00;;;;;;5068762;28;20469;-80
2022/01/10 09:22:05;;;;;;;9.43;4.90;;;6.70;1.00;;;;;;5057135;28;20452;-81
2022/01/10 09:24:33;;;;;;;8.23;4.50;;;6.70;1.00;;;;;;5071085;28;20480;-81
2022/01/10 09:27:06;;;;;;;11.30;4.90;;;6.80;1.00;;;;;;5070147;28;20469;-80
2022/01/10 09:29:35;;;;;;;12.00;4.00;;;6.80;1.00;;;;;;5071535;28;20473;-81
2022/01/10 09:32:04;;;;;;;5.82;4.10;;;6.70;1.00;;;;;;5055172;28;20482;-81
2022/01/10 09:34:32;;;;;;;5.70;5.03;;;6.70;1.00;;;;;;5072968;28;20222;-79
2022/01/10 09:37:00;;;;;;;7.90;4.13;;;6.80;1.00;;;;;;5061101;28;20459;-81
2022/01/10 09:39:29;;;;;;;6.37;4.07;;;6.80;1.00;;;;;;5058687;28;20509;-80
2022/01/10 09:41:58;;;;;;;6.80;4.00;;;6.80;1.00;;;;;;5069490;28;20463;-81
2022/01/10 09:44:26;;;;;;;8.35;4.35;;;6.80;1.00;;;;;;5059849;28;20481;-81
2022/01/10 09:46:56;;;;;;;11.23;3.83;;;6.80;1.00;;;;;;5071749;28;20201;-80
2022/01/10 09:49:24;;;;;;;6.60;4.00;;;6.80;1.00;;;;;;5054333;28;20462;-79
2022/01/10 09:51:53;;;;;;;8.70;3.67;;;6.80;1.00;;;;;;5056299;28;20447;-81
2022/01/10 09:54:21;;;;;;;6.00;3.63;;;6.80;1.00;;;;;;5065117;28;20470;-81
2022/01/10 09:56:50;;;;;;;5.33;3.77;;;6.90;1.00;;;;;;5063761;28;20459;-80
2022/01/10 09:59:19;;;;;;;9.30;4.20;;;6.90;1.00;;;;;;5075774;28;20535;-80
2022/01/10 10:01:50;;;;;;;12.55;4.50;;;6.90;1.00;;;;;;5060443;28;20217;-81
2022/01/10 10:04:20;;;;;;;8.10;3.33;;;6.90;1.00;;;;;;5061749;28;20225;-80
2022/01/10 10:06:49;;;;;;;8.57;3.15;;;6.90;1.00;;;;;;5068494;28;20462;-81
2022/01/10 10:09:18;;;;;;;6.33;3.43;;;6.90;1.00;;;;;;5076238;28;20231;-81
2022/01/10 10:11:50;;;;;;;11.50;4.07;;;6.90;1.00;;;;;;5076454;28;20453;-80
2022/01/10 10:14:21;;;;;;;6.38;3.65;;;6.90;1.00;;;;;;5056584;28;20525;-80
2022/01/10 10:16:52;;;;;;;8.88;4.38;;;6.90;1.00;;;;;;5067850;28;20201;-80
2022/01/10 10:19:23;;;;;;;7.93;3.97;;;6.90;1.00;;;;;;5058304;28;20539;-81
2022/01/10 10:21:52;;;;;;;8.63;4.03;;;6.90;1.00;;;;;;5065612;28;20186;-81
2022/01/10 10:24:22;;;;;;;5.40;3.70;;;6.90;1.00;;;;;;5065612;28;20484;-79
2022/01/10 10:26:50;;;;;;;9.52;3.13;;;6.80;1.00;;;;;;5068058;28;20481;-80
2022/01/10 10:29:19;;;;;;;12.90;3.97;;;6.80;1.00;;;;;;5057291;28;20567;-80
2022/01/10 10:31:49;;;;;;;13.13;6.45;;;6.90;1.00;;;;;;5066726;28;20442;-80
2022/01/10 10:34:21;;;;;;;12.23;4.57;;;6.90;1.00;;;;;;5062075;28;20278;-80
2022/01/10 10:37:01;;;;;;;8.27;3.70;;;6.90;1.00;;;;;;5060010;28;20546;-80
2022/01/10 10:39:30;;;;;;;7.77;3.20;;;6.80;1.00;;;;;;5058380;28;20458;-81
2022/01/10 10:42:04;;;;;;;6.20;3.10;;;6.90;1.00;;;;;;5066182;28;20570;-80
2022/01/10 10:44:33;;;;;;;7.15;3.78;;;7.00;1.00;;;;;;5068387;28;20480;-79
2022/01/10 10:47:03;;;;;;;5.68;2.95;;;7.00;1.00;;;;;;5077302;28;20212;-80
2022/01/10 10:49:37;;;;;;;8.00;3.63;;;7.00;1.00;;;;;;5061315;28;20656;-81
2022/01/10 10:52:08;;;;;;;6.85;4.40;;;6.90;1.00;;;;;;5053633;28;20796;-78
2022/01/10 10:54:38;;;;;;;9.20;3.93;;;7.00;1.00;;;;;;5049339;28;20222;-80
2022/01/10 10:57:08;;;;;;;9.07;4.20;;;7.10;1.00;;;;;;5049853;28;20997;-79
2022/01/10 10:59:43;;;;;;;8.50;3.90;;;7.10;1.00;;;;;;5065075;28;20451;-80
2022/01/10 11:02:13;;;;;;;10.17;4.30;;;7.20;1.00;;;;;;5068603;28;20512;-80
2022/01/10 11:04:43;;;;;;;5.40;3.13;;;7.20;1.00;;;;;;5050098;28;21037;-81
2022/01/10 11:07:12;;;;;;;9.10;4.13;;;7.30;1.00;;;;;;5049467;28;20452;-79
2022/01/10 11:10:00;;;;;;;5.20;3.07;;;7.30;1.00;;;;;;5050194;28;20457;-80
2022/01/10 11:12:29;;;;;;;9.23;4.63;;;7.30;1.00;;;;;;5049635;28;20447;-79
2022/01/10 11:15:00;;;;;;;6.63;4.20;;;7.30;1.00;;;;;;5049883;28;20483;-80
2022/01/10 11:17:30;;;;;;;13.25;3.97;;;7.40;1.00;;;;;;5062132;28;20452;-78
2022/01/10 11:20:15;;;;;;;8.97;3.60;;;7.30;1.00;;;;;;5048875;28;20870;-81
2022/01/10 11:22:45;;;;;;;8.43;4.83;;;7.30;1.00;;;;;;5052816;28;20466;-80
2022/01/10 11:25:23;;;;;;;7.57;4.70;;;7.30;1.00;;;;;;5067649;28;20481;-80
2022/01/10 11:27:54;;;;;;;9.50;4.70;;;7.20;1.00;;;;;;5058747;28;20455;-80
2022/01/10 11:30:33;;;;;;;12.00;4.23;;;7.30;1.00;;;;;;5057706;28;20454;-80
2022/01/10 11:33:07;;;;;;;7.40;4.83;;;7.20;1.00;;;;;;5077294;28;20565;-80
2022/01/10 11:35:56;;;;;;;12.13;4.33;;;7.20;1.00;;;;;;5067567;28;21139;-80
2022/01/10 11:38:29;;;;;;;6.83;4.20;;;7.20;1.00;;;;;;5064042;28;20914;-80
2022/01/10 11:41:00;;;;;;;7.70;3.80;;;7.30;1.00;;;;;;5051055;28;20489;-82
2022/01/10 11:43:40;;;;;;;6.37;4.43;;;7.30;1.00;;;;;;5062153;28;21005;-81
2022/01/10 11:46:27;;;;;;;6.30;4.40;;;7.30;1.00;;;;;;5076578;28;20459;-80
2022/01/10 11:49:00;;;;;;;6.80;4.30;;;7.30;1.00;;;;;;5054719;28;20455;-80
2022/01/10 11:51:34;;;;;;;7.80;5.17;;;7.30;1.00;;;;;;5062171;28;20446;-80
2022/01/10 11:54:09;;;;;;;8.63;4.83;;;7.30;1.00;;;;;;5067300;28;20542;-79
2022/01/10 11:56:40;;;;;;;8.37;5.77;;;7.30;1.00;;;;;;5047412;28;20454;-79
2022/01/10 11:59:23;;;;;;;8.70;4.20;;;7.30;1.00;;;;;;5050531;28;20448;-79
2022/01/10 12:01:57;;;;;;;9.52;4.53;;;7.30;1.00;;;;;;5074100;28;21222;-79
2022/01/10 12:04:27;;;;;;;10.37;4.40;;;7.30;1.00;;;;;;5063532;28;20216;-80
2022/01/10 12:06:58;;;;;;;5.83;3.40;;;7.50;1.00;;;;;;5068825;28;20460;-80
2022/01/10 12:09:26;;;;;;;6.70;3.30;;;7.30;99.90;;;;;;5059420;28;20457;-79
2022/01/10 12:11:57;;;;;;;6.30;4.10;;;7.30;99.90;;;;;;5057833;28;20439;-79
2022/01/10 12:14:26;;;;;;;4.80;3.10;;;7.30;99.90;;;;;;5059901;28;20473;-81
2022/01/10 12:16:56;;;;;;;9.70;4.73;;;7.30;99.90;;;;;;5066017;28;21523;-81
2022/01/10 12:19:24;;;;;;;5.07;3.73;;;7.20;99.90;;;;;;5073818;28;20454;-80
2022/01/10 12:21:54;;;;;;;9.57;5.10;;;7.30;1.00;;;;;;5059029;28;20473;-80
2022/01/10 12:24:24;;;;;;;10.90;5.20;;;7.30;1.00;;;;;;5078112;28;20473;-81
2022/01/10 12:26:52;;;;;;;7.70;5.10;;;7.30;99.90;;;;;;5070184;28;20482;-80
2022/01/10 12:29:22;;;;;;;13.17;6.03;;;7.30;99.90;;;;;;5076284;28;20716;-81
2022/01/10 12:31:50;;;;;;;7.70;3.53;;;7.30;99.90;;;;;;5068096;28;20961;-80
2022/01/10 12:34:19;;;;;;;5.55;3.47;;;7.30;99.90;;;;;;5066131;28;20505;-81
2022/01/10 12:36:47;;;;;;;4.47;3.17;;;7.30;99.90;;;;;;5057322;28;20596;-81
2022/01/10 12:39:20;;;;;;;11.27;4.97;;;7.30;99.90;;;;;;5070073;28;20507;-80
2022/01/10 12:41:51;;;;;;;7.40;4.07;;;7.30;99.90;;;;;;5056580;28;20475;-81
2022/01/10 12:44:21;;;;;;;9.63;4.50;;;7.30;99.90;;;;;;5062652;28;20485;-79
2022/01/10 12:46:49;;;;;;;8.13;4.97;;;7.40;99.90;;;;;;5052732;28;20457;-80
2022/01/10 12:49:18;;;;;;;9.83;4.00;;;7.40;99.90;;;;;;5057932;28;20446;-80
2022/01/10 12:51:47;;;;;;;8.90;5.37;;;7.40;99.90;;;;;;5058150;28;20469;-79
2022/01/10 12:54:19;;;;;;;5.37;4.17;;;7.40;99.90;;;;;;5065274;28;20729;-81
2022/01/10 12:56:48;;;;;;;8.70;4.03;;;7.30;99.90;;;;;;5063612;28;20729;-80
2022/01/10 12:59:20;;;;;;;6.00;4.40;;;7.40;99.90;;;;;;5076121;28;20460;-79
2022/01/10 13:01:49;;;;;;;7.97;4.37;;;7.40;99.90;;;;;;5063014;28;20481;-81
2022/01/10 13:04:23;;;;;;;8.70;5.23;;;7.40;99.90;;;;;;5067364;28;20561;-81
2022/01/10 13:06:53;;;;;;;9.90;4.63;;;7.40;99.90;;;;;;5052960;28;20462;-79
2022/01/10 13:09:23;;;;;;;7.67;4.37;;;7.30;99.90;;;;;;5059572;28;20477;-80
2022/01/10 13:12:01;;;;;;;6.10;4.57;;;7.40;99.90;;;;;;5080969;28;20484;-81
2022/01/10 13:14:37;;;;;;;9.53;4.10;;;7.30;99.90;;;;;;5058251;28;20481;-81
2022/01/10 13:17:08;;;;;;;4.70;3.87;;;7.40;99.90;;;;;;5072199;28;20450;-80
2022/01/10 13:19:38;;;;;;;11.10;4.93;;;7.50;99.90;;;;;;5055073;28;20473;-79
2022/01/10 13:22:11;;;;;;;9.40;4.87;;;7.50;99.90;;;;;;5063528;28;21039;-79